createdAt,value
2019-02-06T00:01:51.696Z,79.57
2019-02-06T00:04:21.129Z,79.49
2019-02-06T00:06:50.589Z,79.48
2019-02-06T00:09:20.027Z,78.43
2019-02-06T00:11:49.491Z,78.89
2019-02-06T00:14:18.945Z,78.06
2019-02-06T00:16:48.420Z,77.95
2019-02-06T00:19:17.843Z,77.41
2019-02-06T00:21:47.301Z,77.58
2019-02-06T00:24:16.741Z,77.87
2019-02-06T00:26:46.191Z,77.58
2019-02-06T00:29:15.625Z,77.76
2019-02-06T00:31:45.086Z,77.84
2019-02-06T00:34:14.706Z,77.54
2019-02-06T00:36:44.158Z,77.61
2019-02-06T00:39:13.595Z,77.33
2019-02-06T00:41:43.061Z,77.84
2019-02-06T00:44:12.495Z,77.90
2019-02-06T00:46:41.967Z,77.58
2019-02-06T00:49:11.674Z,77.57
2019-02-06T00:51:41.116Z,77.64
2019-02-06T00:54:10.550Z,77.63
2019-02-06T00:56:40.018Z,77.03
2019-02-06T00:59:09.518Z,77.14
2019-02-06T01:01:38.970Z,78.22
2019-02-06T01:04:08.693Z,78.35
2019-02-06T01:06:38.133Z,78.06
2019-02-06T01:09:09.578Z,77.92
2019-02-06T01:11:39.031Z,78.20
2019-02-06T01:14:08.469Z,78.27
2019-02-06T01:16:37.908Z,78.01
2019-02-06T01:19:07.629Z,78.19
2019-02-06T01:21:37.097Z,77.50
2019-02-06T01:24:06.740Z,77.23
2019-02-06T01:26:36.226Z,77.07
2019-02-06T01:29:05.730Z,77.79
2019-02-06T01:31:35.351Z,77.76
2019-02-06T01:34:05.372Z,77.94
2019-02-06T01:36:34.963Z,79.04
2019-02-06T01:39:08.555Z,79.28
2019-02-06T01:41:38.100Z,78.50
2019-02-06T01:44:07.666Z,78.58
2019-02-06T01:46:37.261Z,78.61
2019-02-06T01:49:07.118Z,78.59
2019-02-06T01:51:36.707Z,78.28
2019-02-06T01:54:06.375Z,78.28
2019-02-06T01:56:35.916Z,78.21
2019-02-06T01:59:05.569Z,78.11
2019-02-06T02:01:35.142Z,79.00
2019-02-06T02:04:04.968Z,79.54
2019-02-06T02:06:34.547Z,79.18
2019-02-06T02:09:07.447Z,79.18
2019-02-06T02:11:36.943Z,79.22
2019-02-06T02:14:06.893Z,79.38
2019-02-06T02:16:36.507Z,79.01
2019-02-06T02:19:06.327Z,78.65
2019-02-06T02:21:35.835Z,78.52
2019-02-06T02:24:05.392Z,78.80
2019-02-06T02:26:34.916Z,79.04
2019-02-06T02:29:04.485Z,79.54
2019-02-06T02:31:34.090Z,78.81
2019-02-06T02:34:03.667Z,78.46
2019-02-06T02:36:33.180Z,78.56
2019-02-06T02:39:03.272Z,77.81
2019-02-06T02:41:32.752Z,78.29
2019-02-06T02:44:02.308Z,78.24
2019-02-06T02:46:31.891Z,78.32
2019-02-06T02:49:01.429Z,77.72
2019-02-06T02:51:31.017Z,78.76
2019-02-06T02:54:00.532Z,79.18
2019-02-06T02:56:29.961Z,78.98
2019-02-06T02:58:59.418Z,77.56
2019-02-06T03:01:39.622Z,77.66
2019-02-06T03:04:10.842Z,77.56
2019-02-06T03:06:41.728Z,77.80
2019-02-06T03:09:12.536Z,77.88
2019-02-06T03:11:41.969Z,78.10
2019-02-06T03:14:11.788Z,78.08
2019-02-06T03:16:41.220Z,78.73
2019-02-06T03:19:10.661Z,78.11
2019-02-06T03:21:40.106Z,78.42
2019-02-06T03:24:09.540Z,77.90
2019-02-06T03:26:38.986Z,77.02
2019-02-06T03:29:08.694Z,77.06
2019-02-06T03:31:38.150Z,77.71
2019-02-06T03:34:07.577Z,77.98
2019-02-06T03:36:40.297Z,77.29
2019-02-06T03:39:09.320Z,76.42
2019-02-06T03:41:38.902Z,76.80
2019-02-06T03:44:08.836Z,77.50
2019-02-06T03:46:38.344Z,77.41
2019-02-06T03:49:08.078Z,77.47
2019-02-06T03:51:37.595Z,77.17
2019-02-06T03:54:07.219Z,78.21
2019-02-06T03:56:36.749Z,77.94
2019-02-06T03:59:06.718Z,77.50
2019-02-06T04:01:36.239Z,78.16
2019-02-06T04:04:05.989Z,77.87
2019-02-06T04:06:35.482Z,78.86
2019-02-06T04:09:08.002Z,79.03
2019-02-06T04:11:37.526Z,79.15
2019-02-06T04:14:07.896Z,78.60
2019-02-06T04:16:37.346Z,79.54
2019-02-06T04:19:06.876Z,80.43
2019-02-06T04:21:36.405Z,80.69
2019-02-06T04:24:06.222Z,80.03
2019-02-06T04:26:35.783Z,80.84
2019-02-06T04:29:05.631Z,80.78
2019-02-06T04:31:35.177Z,80.96
2019-02-06T04:34:05.053Z,81.08
2019-02-06T04:36:34.560Z,80.46
2019-02-06T04:39:05.682Z,79.60
2019-02-06T04:41:35.232Z,79.86
2019-02-06T04:44:04.874Z,79.63
2019-02-06T04:46:34.407Z,79.73
2019-02-06T04:49:03.882Z,79.36
2019-02-06T04:51:33.408Z,79.44
2019-02-06T04:54:02.930Z,79.91
2019-02-06T04:56:32.432Z,79.47
2019-02-06T04:59:01.941Z,79.13
2019-02-06T05:01:31.469Z,79.34
2019-02-06T05:04:00.952Z,79.37
2019-02-06T05:06:30.582Z,78.67
2019-02-06T05:09:00.190Z,78.99
2019-02-06T05:11:29.696Z,78.85
2019-02-06T05:13:59.533Z,78.33
2019-02-06T05:16:29.117Z,78.69
2019-02-06T05:18:58.672Z,78.87
2019-02-06T05:21:28.213Z,78.26
2019-02-06T05:23:57.810Z,78.38
2019-02-06T05:26:27.412Z,78.04
2019-02-06T05:28:57.134Z,78.82
2019-02-06T05:31:26.746Z,78.47
2019-02-06T05:33:56.337Z,78.01
2019-02-06T05:36:25.872Z,78.26
2019-02-06T05:38:55.372Z,78.05
2019-02-06T05:41:24.989Z,78.03
2019-02-06T05:43:54.779Z,79.53
2019-02-06T05:46:24.341Z,78.96
2019-02-06T05:48:53.922Z,78.67
2019-02-06T05:51:23.435Z,78.63
2019-02-06T05:53:52.914Z,78.81
2019-02-06T05:56:22.432Z,78.88
2019-02-06T05:58:51.942Z,79.02
2019-02-06T06:01:23.096Z,79.12
2019-02-06T06:03:52.593Z,79.19
2019-02-06T06:06:22.146Z,78.87
2019-02-06T06:08:51.679Z,80.27
2019-02-06T06:11:21.246Z,77.93
2019-02-06T06:13:50.737Z,77.29
2019-02-06T06:16:20.247Z,77.14
2019-02-06T06:18:49.713Z,76.77
2019-02-06T06:21:19.253Z,76.39
2019-02-06T06:23:48.777Z,76.65
2019-02-06T06:26:18.261Z,76.75
2019-02-06T06:28:47.813Z,75.39
2019-02-06T06:31:17.509Z,75.04
2019-02-06T06:33:47.161Z,74.48
2019-02-06T06:36:16.652Z,74.50
2019-02-06T06:38:46.215Z,74.37
2019-02-06T06:41:15.732Z,74.66
2019-02-06T06:43:45.329Z,74.34
2019-02-06T06:46:15.089Z,73.77
2019-02-06T06:48:44.603Z,75.03
2019-02-06T06:51:14.156Z,75.89
2019-02-06T06:53:43.721Z,76.04
2019-02-06T06:56:13.239Z,75.46
2019-02-06T06:58:43.679Z,74.79
2019-02-06T07:01:13.420Z,74.95
2019-02-06T07:03:42.942Z,74.36
2019-02-06T07:06:12.490Z,74.29
2019-02-06T07:08:41.996Z,74.03
2019-02-06T07:11:11.482Z,73.68
2019-02-06T07:13:41.010Z,74.06
2019-02-06T07:16:10.824Z,73.81
2019-02-06T07:18:40.352Z,73.62
2019-02-06T07:21:09.869Z,73.79
2019-02-06T07:23:39.391Z,74.09
2019-02-06T07:26:08.889Z,74.38
2019-02-06T07:28:38.516Z,74.38
2019-02-06T07:31:08.109Z,74.78
2019-02-06T07:33:37.723Z,75.33
2019-02-06T07:36:07.179Z,75.62
2019-02-06T07:38:36.618Z,75.68
2019-02-06T07:41:06.058Z,75.80
2019-02-06T07:43:35.524Z,75.62
2019-02-06T07:46:05.304Z,74.39
2019-02-06T07:48:34.829Z,75.18
2019-02-06T07:51:04.267Z,75.64
2019-02-06T07:53:33.730Z,75.77
2019-02-06T07:56:03.168Z,75.31
2019-02-06T07:58:32.628Z,75.33
2019-02-06T08:01:02.359Z,75.57
2019-02-06T08:03:31.798Z,75.18
2019-02-06T08:06:01.241Z,75.15
2019-02-06T08:08:36.072Z,74.19
2019-02-06T08:11:03.043Z,75.32
2019-02-06T08:13:32.694Z,75.05
2019-02-06T08:16:02.418Z,75.16
2019-02-06T08:18:31.859Z,75.90
2019-02-06T08:21:01.396Z,75.70
2019-02-06T08:23:30.846Z,75.49
2019-02-06T08:26:00.282Z,74.92
2019-02-06T08:28:29.752Z,74.95
2019-02-06T08:30:59.465Z,74.32
2019-02-06T08:33:28.909Z,74.49
2019-02-06T08:35:58.349Z,74.72
2019-02-06T08:38:27.811Z,74.77
2019-02-06T08:40:57.316Z,73.91
2019-02-06T08:43:26.765Z,74.92
2019-02-06T08:45:56.223Z,74.73
2019-02-06T08:48:25.698Z,73.93
2019-02-06T08:50:55.132Z,75.20
2019-02-06T08:53:24.664Z,75.30
2019-02-06T08:55:54.123Z,75.25
2019-02-06T08:58:23.574Z,75.69
2019-02-06T09:00:53.358Z,75.46
2019-02-06T09:03:22.974Z,74.82
2019-02-06T09:05:52.499Z,75.35
2019-02-06T09:08:22.215Z,74.55
2019-02-06T09:10:51.719Z,74.65
2019-02-06T09:13:21.326Z,73.51
2019-02-06T09:15:50.998Z,72.50
2019-02-06T09:18:20.565Z,72.72
2019-02-06T09:20:52.712Z,72.74
2019-02-06T09:23:21.309Z,74.83
2019-02-06T09:25:50.801Z,74.48
2019-02-06T09:28:20.308Z,74.48
2019-02-06T09:30:50.072Z,74.52
2019-02-06T09:33:19.567Z,74.76
2019-02-06T09:35:49.085Z,75.40
2019-02-06T09:38:18.575Z,74.90
2019-02-06T09:40:49.548Z,74.33
2019-02-06T09:43:19.183Z,73.49
2019-02-06T09:45:48.984Z,73.20
2019-02-06T09:48:18.485Z,73.56
2019-02-06T09:50:48.001Z,74.03
2019-02-06T09:53:17.513Z,74.13
2019-02-06T09:55:47.125Z,74.69
2019-02-06T09:58:16.606Z,75.03
2019-02-06T10:00:46.679Z,74.32
2019-02-06T10:03:16.164Z,74.52
2019-02-06T10:05:45.749Z,74.49
2019-02-06T10:08:15.240Z,74.34
2019-02-06T10:10:46.420Z,76.17
2019-02-06T10:13:16.621Z,74.81
2019-02-06T10:15:46.396Z,73.99
2019-02-06T10:18:15.913Z,73.81
2019-02-06T10:20:48.823Z,74.30
2019-02-06T10:23:19.064Z,73.90
2019-02-06T10:25:48.559Z,73.86
2019-02-06T10:28:18.204Z,72.56
2019-02-06T10:30:49.601Z,72.13
2019-02-06T10:33:19.406Z,71.95
2019-02-06T10:35:51.910Z,71.66
2019-02-06T10:38:20.281Z,71.04
2019-02-06T10:40:49.997Z,71.40
2019-02-06T10:43:31.321Z,71.65
2019-02-06T10:45:51.164Z,71.56
2019-02-06T10:48:20.710Z,70.58
2019-02-06T10:50:50.772Z,71.12
2019-02-06T10:53:20.511Z,72.22
2019-02-06T10:55:49.994Z,72.85
2019-02-06T10:58:19.834Z,72.91
2019-02-06T11:00:53.362Z,72.92
2019-02-06T11:03:22.995Z,72.10
2019-02-06T11:05:52.567Z,72.58
2019-02-06T11:08:22.259Z,72.58
2019-02-06T11:10:52.203Z,72.24
2019-02-06T11:13:21.699Z,72.78
2019-02-06T11:15:51.182Z,72.99
2019-02-06T11:18:20.673Z,73.07
2019-02-06T11:20:50.191Z,73.34
2019-02-06T11:23:19.654Z,72.32
2019-02-06T11:25:49.209Z,72.45
2019-02-06T11:28:18.812Z,72.03
2019-02-06T11:30:48.397Z,71.22
2019-02-06T11:33:18.043Z,71.12
2019-02-06T11:35:47.753Z,70.94
2019-02-06T11:38:17.240Z,70.45
2019-02-06T11:40:46.900Z,69.82
2019-02-06T11:43:16.458Z,69.80
2019-02-06T11:45:45.959Z,69.24
2019-02-06T11:48:15.484Z,69.51
2019-02-06T11:50:46.813Z,69.90
2019-02-06T11:53:17.421Z,69.27
2019-02-06T11:55:47.254Z,69.37
2019-02-06T11:58:16.792Z,68.19
2019-02-06T12:00:48.321Z,67.24
2019-02-06T12:03:17.279Z,66.53
2019-02-06T12:05:46.952Z,65.66
2019-02-06T12:08:16.676Z,64.98
2019-02-06T12:10:46.695Z,64.50
2019-02-06T12:13:16.252Z,63.94
2019-02-06T12:15:45.844Z,63.46
2019-02-06T12:18:15.479Z,62.73
2019-02-06T12:20:46.690Z,60.41
2019-02-06T12:23:16.201Z,61.50
2019-02-06T12:25:46.075Z,63.97
2019-02-06T12:28:15.575Z,64.29
2019-02-06T12:30:46.851Z,64.11
2019-02-06T12:33:16.358Z,65.89
2019-02-06T12:35:45.877Z,65.21
2019-02-06T12:38:15.436Z,66.55
2019-02-06T12:40:46.560Z,66.99
2019-02-06T12:43:16.036Z,68.04
2019-02-06T12:45:45.569Z,68.84
2019-02-06T12:48:15.152Z,68.57
2019-02-06T12:50:44.742Z,66.41
2019-02-06T12:53:14.240Z,67.84
2019-02-06T12:55:44.670Z,67.68
2019-02-06T12:58:14.443Z,67.01
2019-02-06T13:00:48.078Z,68.71
2019-02-06T13:03:17.568Z,68.76
2019-02-06T13:05:47.084Z,68.56
2019-02-06T13:08:17.380Z,68.16
2019-02-06T13:10:47.051Z,68.21
2019-02-06T13:13:16.928Z,67.96
2019-02-06T13:15:47.317Z,68.67
2019-02-06T13:18:17.011Z,68.18
2019-02-06T13:20:46.652Z,68.10
2019-02-06T13:23:16.121Z,69.06
2019-02-06T13:25:45.721Z,69.50
2019-02-06T13:28:15.580Z,69.10
2019-02-06T13:30:46.608Z,69.48
2019-02-06T13:33:16.061Z,70.53
2019-02-06T13:35:45.523Z,70.08
2019-02-06T13:38:14.946Z,69.69
2019-02-06T13:40:46.039Z,70.06
2019-02-06T13:43:15.609Z,70.86
2019-02-06T13:45:49.687Z,71.70
2019-02-06T13:48:19.119Z,70.95
2019-02-06T13:50:48.589Z,70.77
2019-02-06T13:53:18.012Z,69.66
2019-02-06T13:55:47.771Z,70.43
2019-02-06T13:58:20.199Z,70.10
2019-02-06T14:00:48.666Z,70.47
2019-02-06T14:03:18.098Z,71.00
2019-02-06T14:05:47.635Z,71.74
2019-02-06T14:08:17.310Z,71.18
2019-02-06T14:10:58.532Z,72.63
2019-02-06T14:13:18.844Z,72.50
2019-02-06T14:15:49.157Z,72.54
2019-02-06T14:18:19.523Z,72.46
2019-02-06T14:20:50.599Z,71.92
2019-02-06T14:23:28.206Z,72.03
2019-02-06T14:26:21.409Z,72.12
2019-02-06T14:29:32.691Z,71.56
2019-02-06T14:32:15.449Z,72.35
2019-02-06T14:34:53.945Z,72.59
2019-02-06T14:37:45.646Z,72.37
2019-02-06T14:40:42.740Z,73.02
2019-02-06T14:43:31.813Z,72.72
2019-02-06T14:46:31.337Z,73.02
2019-02-06T14:49:16.954Z,73.27
2019-02-06T14:52:12.026Z,73.22
2019-02-06T14:55:03.851Z,73.90
2019-02-06T14:57:49.888Z,73.78
2019-02-06T15:00:29.557Z,73.69
2019-02-06T15:03:15.489Z,73.31
2019-02-06T15:06:07.555Z,72.87
2019-02-06T15:09:08.163Z,73.11
2019-02-06T15:11:50.845Z,73.39
2019-02-06T15:14:39.792Z,73.31
2019-02-06T15:17:37.779Z,75.72
2019-02-06T15:20:29.842Z,73.25
2019-02-06T15:23:15.908Z,74.14
2019-02-06T15:25:55.625Z,74.69
2019-02-06T15:28:32.516Z,73.73
2019-02-06T15:31:47.196Z,73.24
2019-02-06T15:34:41.919Z,73.78
2019-02-06T15:37:18.815Z,74.07
2019-02-06T15:40:22.287Z,73.92
2019-02-06T15:43:02.260Z,73.21
2019-02-06T15:45:44.878Z,74.70
2019-02-06T15:48:56.115Z,74.52
2019-02-06T15:51:52.560Z,74.42
2019-02-06T15:54:50.267Z,74.41
2019-02-06T15:57:36.320Z,74.59
2019-02-06T16:00:39.269Z,74.35
2019-02-06T16:03:38.496Z,74.32
2019-02-06T16:06:23.496Z,74.69
2019-02-06T16:09:00.646Z,74.67
2019-02-06T16:11:42.510Z,75.22
2019-02-06T16:14:19.216Z,74.92
2019-02-06T16:17:18.994Z,75.66
2019-02-06T16:20:14.011Z,75.04
2019-02-06T16:22:53.869Z,75.67
2019-02-06T16:25:33.995Z,76.50
2019-02-06T16:28:19.961Z,76.38
2019-02-06T16:31:33.021Z,75.96
2019-02-06T16:34:15.740Z,75.87
2019-02-06T16:37:32.127Z,75.70
2019-02-06T16:40:28.757Z,76.33
2019-02-06T16:43:23.699Z,75.90
2019-02-06T16:46:18.732Z,75.91
2019-02-06T16:49:04.711Z,75.68
2019-02-06T16:51:38.879Z,76.16
2019-02-06T16:54:18.506Z,75.41
2019-02-06T16:57:08.594Z,76.02
2019-02-06T17:00:24.492Z,76.21
2019-02-06T17:03:07.274Z,75.97
2019-02-06T17:05:50.247Z,76.22
2019-02-06T17:08:29.891Z,76.47
2019-02-06T17:11:15.751Z,74.90
2019-02-06T17:14:19.764Z,75.36
2019-02-06T17:17:23.422Z,75.80
2019-02-06T17:20:15.180Z,76.45
2019-02-06T17:23:19.288Z,76.16
2019-02-06T17:26:08.456Z,76.61
2019-02-06T17:28:42.598Z,76.63
2019-02-06T17:31:22.391Z,76.54
2019-02-06T17:34:17.507Z,77.06
2019-02-06T17:36:51.655Z,77.03
2019-02-06T17:39:55.685Z,76.06
2019-02-06T17:42:47.293Z,76.23
2019-02-06T17:45:52.693Z,76.78
2019-02-06T17:48:53.838Z,77.28
2019-02-06T17:52:02.294Z,77.45
2019-02-06T17:54:55.489Z,77.24
2019-02-06T17:57:24.983Z,77.05
2019-02-06T17:59:54.463Z,75.49
2019-02-06T18:02:24.262Z,76.36
2019-02-06T18:04:53.751Z,76.16
2019-02-06T18:07:23.192Z,75.84
2019-02-06T18:09:52.751Z,77.30
2019-02-06T18:12:26.992Z,77.19
2019-02-06T18:14:53.499Z,77.01
2019-02-06T18:17:22.936Z,76.71
2019-02-06T18:19:52.425Z,76.75
2019-02-06T18:22:22.580Z,76.98
2019-02-06T18:24:52.134Z,77.39
2019-02-06T18:27:21.567Z,77.09
2019-02-06T18:29:51.044Z,77.73
2019-02-06T18:32:20.861Z,77.66
2019-02-06T18:34:50.442Z,77.81
2019-02-06T18:37:19.948Z,77.28
2019-02-06T18:39:49.379Z,77.03
2019-02-06T18:42:18.860Z,76.44
2019-02-06T18:44:48.302Z,76.87
2019-02-06T18:47:17.867Z,76.79
2019-02-06T18:49:47.576Z,76.92
2019-02-06T18:52:20.518Z,76.63
2019-02-06T18:54:48.220Z,76.85
2019-02-06T18:57:17.703Z,77.02
2019-02-06T18:59:47.171Z,77.35
2019-02-06T19:02:16.721Z,77.42
2019-02-06T19:04:46.228Z,77.46
2019-02-06T19:07:15.696Z,77.95
2019-02-06T19:09:46.208Z,78.11
2019-02-06T19:12:15.753Z,76.58
2019-02-06T19:14:45.197Z,77.55
2019-02-06T19:17:16.772Z,77.23
2019-02-06T19:19:46.227Z,76.36
2019-02-06T19:22:15.708Z,76.35
2019-02-06T19:24:45.441Z,76.84
2019-02-06T19:27:14.936Z,74.71
2019-02-06T19:29:44.390Z,74.70
2019-02-06T19:32:13.888Z,76.63
2019-02-06T19:34:43.367Z,77.63
2019-02-06T19:37:12.853Z,77.50
2019-02-06T19:39:42.275Z,77.69
2019-02-06T19:42:12.035Z,77.57
2019-02-06T19:44:41.461Z,77.92
2019-02-06T19:47:11.318Z,77.44
2019-02-06T19:49:40.768Z,76.90
2019-02-06T19:52:10.361Z,77.10
2019-02-06T19:54:39.845Z,77.45
2019-02-06T19:57:09.365Z,76.93
2019-02-06T19:59:39.072Z,76.94
2019-02-06T20:02:08.561Z,76.78
2019-02-06T20:04:38.009Z,76.54
2019-02-06T20:07:07.570Z,76.99
2019-02-06T20:09:37.009Z,77.15
2019-02-06T20:12:06.744Z,76.38
2019-02-06T20:14:36.182Z,76.21
2019-02-06T20:17:06.025Z,76.89
2019-02-06T20:19:35.466Z,77.36
2019-02-06T20:22:05.027Z,77.84
2019-02-06T20:24:34.462Z,76.91
2019-02-06T20:27:03.972Z,76.68
2019-02-06T20:29:33.431Z,77.57
2019-02-06T20:32:02.917Z,77.42
2019-02-06T20:34:32.388Z,77.20
2019-02-06T20:37:01.877Z,76.32
2019-02-06T20:39:31.314Z,77.09
2019-02-06T20:42:00.800Z,77.30
2019-02-06T20:44:30.243Z,77.06
2019-02-06T20:46:59.735Z,76.79
2019-02-06T20:49:29.528Z,75.38
2019-02-06T20:51:59.159Z,76.53
2019-02-06T20:54:28.609Z,76.73
2019-02-06T20:56:58.091Z,76.50
2019-02-06T20:59:27.529Z,77.06
2019-02-06T21:01:57.003Z,77.16
2019-02-06T21:04:26.432Z,77.06
2019-02-06T21:06:56.093Z,77.64
2019-02-06T21:09:25.550Z,77.27
2019-02-06T21:11:55.036Z,77.42
2019-02-06T21:14:24.475Z,77.34
2019-02-06T21:16:54.784Z,77.52
2019-02-06T21:19:24.214Z,77.20
2019-02-06T21:21:53.978Z,77.84
2019-02-06T21:24:23.476Z,76.56
2019-02-06T21:26:52.954Z,77.45
2019-02-06T21:29:22.463Z,77.44
2019-02-06T21:31:51.903Z,77.99
2019-02-06T21:34:21.386Z,78.40
2019-02-06T21:36:51.095Z,78.57
2019-02-06T21:39:20.570Z,78.83
2019-02-06T21:42:09.826Z,78.74
2019-02-06T21:44:39.322Z,78.98
2019-02-06T21:47:09.231Z,79.24
2019-02-06T21:49:38.730Z,79.07
2019-02-06T21:52:08.355Z,79.40
2019-02-06T21:54:37.854Z,79.13
2019-02-06T21:57:07.432Z,79.69
2019-02-06T21:59:36.922Z,79.62
2019-02-06T22:02:06.701Z,79.47
2019-02-06T22:04:36.238Z,78.60
2019-02-06T22:07:05.784Z,79.14
2019-02-06T22:09:35.293Z,79.22
2019-02-06T22:12:04.942Z,79.10
2019-02-06T22:14:34.479Z,79.07
2019-02-06T22:17:04.280Z,79.33
2019-02-06T22:19:33.790Z,78.89
2019-02-06T22:22:03.383Z,79.98
2019-02-06T22:24:33.008Z,79.87
2019-02-06T22:27:02.585Z,79.48
2019-02-06T22:29:32.085Z,79.63
2019-02-06T22:32:01.583Z,79.14
2019-02-06T22:34:31.182Z,78.16
2019-02-06T22:37:00.672Z,77.61
2019-02-06T22:39:30.208Z,77.66
2019-02-06T22:41:59.812Z,77.68
2019-02-06T22:44:29.341Z,77.66
2019-02-06T22:46:58.889Z,78.26
2019-02-06T22:49:28.760Z,78.66
2019-02-06T22:51:58.252Z,78.64
2019-02-06T22:54:28.018Z,80.45
2019-02-06T22:56:57.530Z,80.15
2019-02-06T22:59:27.126Z,80.43
2019-02-06T23:01:56.671Z,78.97
2019-02-06T23:04:26.238Z,78.29
2019-02-06T23:06:55.968Z,78.08
2019-02-06T23:09:25.489Z,79.22
2019-02-06T23:11:56.494Z,77.99
2019-02-06T23:14:26.401Z,78.38
2019-02-06T23:16:55.979Z,78.85
2019-02-06T23:19:25.522Z,79.51
2019-02-06T23:21:55.111Z,79.23
2019-02-06T23:24:24.648Z,79.49
2019-02-06T23:26:54.343Z,80.31
2019-02-06T23:29:24.065Z,80.80
2019-02-06T23:31:53.543Z,80.52
2019-02-06T23:34:23.138Z,80.19
2019-02-06T23:36:52.634Z,80.16
2019-02-06T23:39:22.137Z,80.37
2019-02-06T23:41:53.178Z,80.18
2019-02-06T23:44:28.898Z,79.91
2019-02-06T23:46:56.164Z,80.37
2019-02-06T23:49:25.435Z,80.18
2019-02-06T23:51:54.943Z,80.02
2019-02-06T23:54:24.461Z,79.86
2019-02-06T23:56:54.209Z,79.83
2019-02-06T23:59:23.761Z,79.23
